sensor_id;sensor_type;location;lat;lon;timestamp;P1;durP1;ratioP1;P2;durP2;ratioP2
25327;SDS011;13279;51.300;12.394;2023-01-15T00:02:06;0.30;;;0.30;;
25327;SDS011;13279;51.300;12.394;2023-01-15T00:04:34;0.50;;;0.50;;
25327;SDS011;13279;51.300;12.394;2023-01-15T00:07:01;0.50;;;0.37;;
25327;SDS011;13279;51.300;12.394;2023-01-15T00:09:29;0.40;;;0.40;;
25327;SDS011;13279;51.300;12.394;2023-01-15T00:11:56;0.43;;;0.43;;
25327;SDS011;13279;51.300;12.394;2023-01-15T00:14:25;0.63;;;0.63;;
25327;SDS011;13279;51.300;12.394;2023-01-15T00:16:52;4.00;;;0.43;;
25327;SDS011;13279;51.300;12.394;2023-01-15T00:19:21;0.30;;;0.30;;
25327;SDS011;13279;51.300;12.394;2023-01-15T00:21:49;1.20;;;0.40;;
25327;SDS011;13279;51.300;12.394;2023-01-15T00:24:18;0.47;;;0.43;;
25327;SDS011;13279;51.300;12.394;2023-01-15T00:27:03;0.77;;;0.40;;
25327;SDS011;13279;51.300;12.394;2023-01-15T00:29:48;0.30;;;0.30;;
25327;SDS011;13279;51.300;12.394;2023-01-15T00:32:15;0.40;;;0.40;;
25327;SDS011;13279;51.300;12.394;2023-01-15T00:34:44;0.80;;;0.53;;
25327;SDS011;13279;51.300;12.394;2023-01-15T00:37:13;0.40;;;0.40;;
25327;SDS011;13279;51.300;12.394;2023-01-15T00:39:41;1.37;;;0.50;;
25327;SDS011;13279;51.300;12.394;2023-01-15T00:42:08;2.40;;;0.50;;
25327;SDS011;13279;51.300;12.394;2023-01-15T00:44:37;0.87;;;0.40;;
25327;SDS011;13279;51.300;12.394;2023-01-15T00:47:05;0.40;;;0.40;;
25327;SDS011;13279;51.300;12.394;2023-01-15T00:49:38;0.33;;;0.33;;
25327;SDS011;13279;51.300;12.394;2023-01-15T00:52:08;0.37;;;0.37;;
25327;SDS011;13279;51.300;12.394;2023-01-15T00:54:36;0.27;;;0.27;;
25327;SDS011;13279;51.300;12.394;2023-01-15T00:57:03;0.67;;;0.67;;
25327;SDS011;13279;51.300;12.394;2023-01-15T00:59:31;1.10;;;0.50;;
25327;SDS011;13279;51.300;12.394;2023-01-15T01:01:59;0.30;;;0.30;;
25327;SDS011;13279;51.300;12.394;2023-01-15T01:04:26;0.87;;;0.47;;
25327;SDS011;13279;51.300;12.394;2023-01-15T01:06:54;0.37;;;0.37;;
25327;SDS011;13279;51.300;12.394;2023-01-15T01:09:24;0.30;;;0.30;;
25327;SDS011;13279;51.300;12.394;2023-01-15T01:11:51;0.87;;;0.60;;
25327;SDS011;13279;51.300;12.394;2023-01-15T01:14:20;0.50;;;0.50;;
25327;SDS011;13279;51.300;12.394;2023-01-15T01:16:51;0.40;;;0.40;;
25327;SDS011;13279;51.300;12.394;2023-01-15T01:19:19;1.07;;;0.70;;
25327;SDS011;13279;51.300;12.394;2023-01-15T01:21:48;0.50;;;0.50;;
25327;SDS011;13279;51.300;12.394;2023-01-15T01:24:18;0.47;;;0.47;;
25327;SDS011;13279;51.300;12.394;2023-01-15T01:26:48;2.03;;;0.40;;
25327;SDS011;13279;51.300;12.394;2023-01-15T01:29:17;1.77;;;0.73;;
25327;SDS011;13279;51.300;12.394;2023-01-15T01:31:46;0.60;;;0.57;;
25327;SDS011;13279;51.300;12.394;2023-01-15T01:34:17;1.00;;;0.50;;
25327;SDS011;13279;51.300;12.394;2023-01-15T01:36:45;0.40;;;0.40;;
25327;SDS011;13279;51.300;12.394;2023-01-15T01:39:13;0.30;;;0.30;;
25327;SDS011;13279;51.300;12.394;2023-01-15T01:41:43;0.40;;;0.30;;
25327;SDS011;13279;51.300;12.394;2023-01-15T01:47:19;0.50;;;0.50;;
25327;SDS011;13279;51.300;12.394;2023-01-15T01:49:48;0.60;;;0.60;;
25327;SDS011;13279;51.300;12.394;2023-01-15T01:52:20;0.53;;;0.40;;
25327;SDS011;13279;51.300;12.394;2023-01-15T01:54:50;1.37;;;0.50;;
25327;SDS011;13279;51.300;12.394;2023-01-15T01:57:23;0.40;;;0.40;;
25327;SDS011;13279;51.300;12.394;2023-01-15T01:59:52;0.63;;;0.63;;
25327;SDS011;13279;51.300;12.394;2023-01-15T02:02:24;0.33;;;0.33;;
25327;SDS011;13279;51.300;12.394;2023-01-15T02:04:55;0.37;;;0.37;;
25327;SDS011;13279;51.300;12.394;2023-01-15T02:07:37;0.40;;;0.40;;
25327;SDS011;13279;51.300;12.394;2023-01-15T02:10:05;0.60;;;0.50;;
25327;SDS011;13279;51.300;12.394;2023-01-15T02:12:51;0.47;;;0.47;;
25327;SDS011;13279;51.300;12.394;2023-01-15T02:15:30;4.13;;;0.63;;
25327;SDS011;13279;51.300;12.394;2023-01-15T02:18:09;0.63;;;0.63;;
25327;SDS011;13279;51.300;12.394;2023-01-15T02:20:45;0.40;;;0.40;;
25327;SDS011;13279;51.300;12.394;2023-01-15T02:23:27;0.40;;;0.40;;
25327;SDS011;13279;51.300;12.394;2023-01-15T02:29:08;1.23;;;0.40;;
25327;SDS011;13279;51.300;12.394;2023-01-15T02:31:40;0.40;;;0.30;;
25327;SDS011;13279;51.300;12.394;2023-01-15T02:34:12;0.50;;;0.20;;
25327;SDS011;13279;51.300;12.394;2023-01-15T02:36:46;0.20;;;0.20;;
25327;SDS011;13279;51.300;12.394;2023-01-15T02:39:23;0.63;;;0.37;;
25327;SDS011;13279;51.300;12.394;2023-01-15T02:41:53;0.47;;;0.43;;
25327;SDS011;13279;51.300;12.394;2023-01-15T02:44:31;0.40;;;0.33;;
25327;SDS011;13279;51.300;12.394;2023-01-15T02:47:02;0.20;;;0.20;;
25327;SDS011;13279;51.300;12.394;2023-01-15T02:49:30;0.73;;;0.30;;
25327;SDS011;13279;51.300;12.394;2023-01-15T02:52:04;0.30;;;0.27;;
25327;SDS011;13279;51.300;12.394;2023-01-15T02:54:45;0.30;;;0.30;;
25327;SDS011;13279;51.300;12.394;2023-01-15T02:57:16;0.80;;;0.47;;
25327;SDS011;13279;51.300;12.394;2023-01-15T02:59:54;0.30;;;0.30;;
25327;SDS011;13279;51.300;12.394;2023-01-15T03:02:26;0.30;;;0.30;;
25327;SDS011;13279;51.300;12.394;2023-01-15T03:05:07;0.20;;;0.20;;
25327;SDS011;13279;51.300;12.394;2023-01-15T03:07:39;0.60;;;0.30;;
25327;SDS011;13279;51.300;12.394;2023-01-15T03:10:13;0.43;;;0.40;;
25327;SDS011;13279;51.300;12.394;2023-01-15T03:12:43;0.87;;;0.23;;
25327;SDS011;13279;51.300;12.394;2023-01-15T03:15:48;1.30;;;0.30;;
25327;SDS011;13279;51.300;12.394;2023-01-15T03:18:39;0.57;;;0.40;;
25327;SDS011;13279;51.300;12.394;2023-01-15T03:21:12;0.67;;;0.40;;
25327;SDS011;13279;51.300;12.394;2023-01-15T03:23:46;0.63;;;0.20;;
25327;SDS011;13279;51.300;12.394;2023-01-15T03:26:23;0.50;;;0.50;;
25327;SDS011;13279;51.300;12.394;2023-01-15T03:28:52;0.27;;;0.27;;
25327;SDS011;13279;51.300;12.394;2023-01-15T03:31:22;0.30;;;0.20;;
25327;SDS011;13279;51.300;12.394;2023-01-15T03:33:50;2.47;;;0.60;;
25327;SDS011;13279;51.300;12.394;2023-01-15T03:36:21;0.30;;;0.30;;
25327;SDS011;13279;51.300;12.394;2023-01-15T03:38:49;0.50;;;0.30;;
25327;SDS011;13279;51.300;12.394;2023-01-15T03:41:39;0.73;;;0.40;;
25327;SDS011;13279;51.300;12.394;2023-01-15T03:44:22;0.20;;;0.20;;
25327;SDS011;13279;51.300;12.394;2023-01-15T03:47:05;1.40;;;0.60;;
25327;SDS011;13279;51.300;12.394;2023-01-15T03:49:46;0.20;;;0.20;;
25327;SDS011;13279;51.300;12.394;2023-01-15T03:52:29;2.10;;;0.47;;
25327;SDS011;13279;51.300;12.394;2023-01-15T03:55:02;0.40;;;0.40;;
25327;SDS011;13279;51.300;12.394;2023-01-15T03:57:37;0.30;;;0.20;;
25327;SDS011;13279;51.300;12.394;2023-01-15T04:00:08;0.77;;;0.20;;
25327;SDS011;13279;51.300;12.394;2023-01-15T04:02:42;0.97;;;0.40;;
25327;SDS011;13279;51.300;12.394;2023-01-15T04:05:13;0.20;;;0.20;;
25327;SDS011;13279;51.300;12.394;2023-01-15T04:07:45;0.80;;;0.60;;
25327;SDS011;13279;51.300;12.394;2023-01-15T04:10:16;0.40;;;0.30;;
25327;SDS011;13279;51.300;12.394;2023-01-15T04:12:46;0.33;;;0.33;;
25327;SDS011;13279;51.300;12.394;2023-01-15T04:15:14;0.30;;;0.30;;
25327;SDS011;13279;51.300;12.394;2023-01-15T04:17:44;4.00;;;0.50;;
25327;SDS011;13279;51.300;12.394;2023-01-15T04:20:12;2.10;;;0.23;;
25327;SDS011;13279;51.300;12.394;2023-01-15T04:22:42;0.50;;;0.40;;
25327;SDS011;13279;51.300;12.394;2023-01-15T04:25:09;0.50;;;0.33;;
25327;SDS011;13279;51.300;12.394;2023-01-15T04:27:37;1.50;;;0.40;;
25327;SDS011;13279;51.300;12.394;2023-01-15T04:30:05;0.50;;;0.30;;
25327;SDS011;13279;51.300;12.394;2023-01-15T04:32:33;2.50;;;0.40;;
25327;SDS011;13279;51.300;12.394;2023-01-15T04:35:03;0.20;;;0.20;;
25327;SDS011;13279;51.300;12.394;2023-01-15T04:37:30;0.33;;;0.23;;
25327;SDS011;13279;51.300;12.394;2023-01-15T04:39:58;0.10;;;0.10;;
25327;SDS011;13279;51.300;12.394;2023-01-15T04:42:25;0.10;;;0.10;;
25327;SDS011;13279;51.300;12.394;2023-01-15T04:45:10;0.17;;;0.17;;
25327;SDS011;13279;51.300;12.394;2023-01-15T04:47:37;1.00;;;0.23;;
25327;SDS011;13279;51.300;12.394;2023-01-15T04:50:07;0.70;;;0.20;;
25327;SDS011;13279;51.300;12.394;2023-01-15T04:52:36;0.20;;;0.20;;
25327;SDS011;13279;51.300;12.394;2023-01-15T04:55:04;0.13;;;0.13;;
25327;SDS011;13279;51.300;12.394;2023-01-15T04:57:32;1.00;;;0.30;;
25327;SDS011;13279;51.300;12.394;2023-01-15T05:00:02;0.90;;;0.90;;
25327;SDS011;13279;51.300;12.394;2023-01-15T05:02:29;0.87;;;0.87;;
25327;SDS011;13279;51.300;12.394;2023-01-15T05:04:57;1.00;;;1.00;;
25327;SDS011;13279;51.300;12.394;2023-01-15T05:07:26;0.77;;;0.77;;
25327;SDS011;13279;51.300;12.394;2023-01-15T05:09:53;2.50;;;0.80;;
25327;SDS011;13279;51.300;12.394;2023-01-15T05:15:05;5.00;;;0.80;;
25327;SDS011;13279;51.300;12.394;2023-01-15T05:17:35;0.70;;;0.63;;
25327;SDS011;13279;51.300;12.394;2023-01-15T05:20:04;2.40;;;0.83;;
25327;SDS011;13279;51.300;12.394;2023-01-15T05:22:35;1.97;;;1.10;;
25327;SDS011;13279;51.300;12.394;2023-01-15T05:25:03;1.73;;;1.23;;
25327;SDS011;13279;51.300;12.394;2023-01-15T05:27:31;0.90;;;0.90;;
25327;SDS011;13279;51.300;12.394;2023-01-15T05:29:59;4.40;;;1.50;;
25327;SDS011;13279;51.300;12.394;2023-01-15T05:32:27;1.53;;;1.10;;
25327;SDS011;13279;51.300;12.394;2023-01-15T05:34:56;0.93;;;0.93;;
25327;SDS011;13279;51.300;12.394;2023-01-15T05:37:24;2.37;;;1.03;;
25327;SDS011;13279;51.300;12.394;2023-01-15T05:39:54;1.17;;;1.13;;
25327;SDS011;13279;51.300;12.394;2023-01-15T05:42:21;1.17;;;1.07;;
25327;SDS011;13279;51.300;12.394;2023-01-15T05:44:48;1.83;;;1.10;;
25327;SDS011;13279;51.300;12.394;2023-01-15T05:47:16;0.90;;;0.90;;
25327;SDS011;13279;51.300;12.394;2023-01-15T05:49:44;1.40;;;1.30;;
25327;SDS011;13279;51.300;12.394;2023-01-15T05:52:12;1.10;;;1.00;;
25327;SDS011;13279;51.300;12.394;2023-01-15T05:54:40;1.60;;;1.50;;
25327;SDS011;13279;51.300;12.394;2023-01-15T05:57:09;1.47;;;1.30;;
25327;SDS011;13279;51.300;12.394;2023-01-15T05:59:38;1.53;;;1.43;;
25327;SDS011;13279;51.300;12.394;2023-01-15T06:02:06;1.60;;;1.50;;
25327;SDS011;13279;51.300;12.394;2023-01-15T06:04:34;1.70;;;1.60;;
25327;SDS011;13279;51.300;12.394;2023-01-15T06:07:01;5.23;;;1.57;;
25327;SDS011;13279;51.300;12.394;2023-01-15T06:09:29;1.50;;;1.40;;
25327;SDS011;13279;51.300;12.394;2023-01-15T06:11:56;1.50;;;1.40;;
25327;SDS011;13279;51.300;12.394;2023-01-15T06:14:25;1.83;;;1.27;;
25327;SDS011;13279;51.300;12.394;2023-01-15T06:16:53;2.00;;;1.10;;
25327;SDS011;13279;51.300;12.394;2023-01-15T06:19:21;1.23;;;1.13;;
25327;SDS011;13279;51.300;12.394;2023-01-15T06:21:48;1.63;;;1.20;;
25327;SDS011;13279;51.300;12.394;2023-01-15T06:24:16;3.07;;;1.60;;
25327;SDS011;13279;51.300;12.394;2023-01-15T06:26:44;2.73;;;1.80;;
25327;SDS011;13279;51.300;12.394;2023-01-15T06:29:12;2.07;;;1.60;;
25327;SDS011;13279;51.300;12.394;2023-01-15T06:31:44;1.53;;;1.30;;
25327;SDS011;13279;51.300;12.394;2023-01-15T06:34:13;2.43;;;1.13;;
25327;SDS011;13279;51.300;12.394;2023-01-15T06:36:41;1.57;;;1.40;;
25327;SDS011;13279;51.300;12.394;2023-01-15T06:39:08;3.00;;;1.30;;
25327;SDS011;13279;51.300;12.394;2023-01-15T06:41:36;0.83;;;0.80;;
25327;SDS011;13279;51.300;12.394;2023-01-15T06:44:22;0.90;;;0.90;;
25327;SDS011;13279;51.300;12.394;2023-01-15T06:47:12;1.70;;;0.80;;
25327;SDS011;13279;51.300;12.394;2023-01-15T06:49:47;1.90;;;0.97;;
25327;SDS011;13279;51.300;12.394;2023-01-15T06:52:15;0.40;;;0.40;;
25327;SDS011;13279;51.300;12.394;2023-01-15T06:54:43;0.97;;;0.70;;
25327;SDS011;13279;51.300;12.394;2023-01-15T06:57:11;3.40;;;0.63;;
25327;SDS011;13279;51.300;12.394;2023-01-15T06:59:38;0.60;;;0.60;;
25327;SDS011;13279;51.300;12.394;2023-01-15T07:02:06;0.50;;;0.50;;
25327;SDS011;13279;51.300;12.394;2023-01-15T07:04:35;2.27;;;0.60;;
25327;SDS011;13279;51.300;12.394;2023-01-15T07:07:02;0.60;;;0.60;;
25327;SDS011;13279;51.300;12.394;2023-01-15T07:09:30;0.50;;;0.50;;
25327;SDS011;13279;51.300;12.394;2023-01-15T07:11:57;2.80;;;0.77;;
25327;SDS011;13279;51.300;12.394;2023-01-15T07:14:25;0.40;;;0.40;;
25327;SDS011;13279;51.300;12.394;2023-01-15T07:16:54;0.33;;;0.33;;
25327;SDS011;13279;51.300;12.394;2023-01-15T07:19:24;0.73;;;0.60;;
25327;SDS011;13279;51.300;12.394;2023-01-15T07:21:53;0.27;;;0.27;;
25327;SDS011;13279;51.300;12.394;2023-01-15T07:24:21;0.53;;;0.53;;
25327;SDS011;13279;51.300;12.394;2023-01-15T07:26:48;0.47;;;0.40;;
25327;SDS011;13279;51.300;12.394;2023-01-15T07:29:16;1.27;;;0.23;;
25327;SDS011;13279;51.300;12.394;2023-01-15T07:31:44;0.30;;;0.30;;
25327;SDS011;13279;51.300;12.394;2023-01-15T07:34:11;2.77;;;0.40;;
25327;SDS011;13279;51.300;12.394;2023-01-15T07:36:38;0.50;;;0.50;;
25327;SDS011;13279;51.300;12.394;2023-01-15T07:39:08;0.33;;;0.30;;
25327;SDS011;13279;51.300;12.394;2023-01-15T07:41:36;0.90;;;0.90;;
25327;SDS011;13279;51.300;12.394;2023-01-15T07:44:21;1.43;;;0.80;;
25327;SDS011;13279;51.300;12.394;2023-01-15T07:47:08;0.40;;;0.40;;
25327;SDS011;13279;51.300;12.394;2023-01-15T07:50:00;1.03;;;0.40;;
25327;SDS011;13279;51.300;12.394;2023-01-15T07:52:28;0.67;;;0.43;;
25327;SDS011;13279;51.300;12.394;2023-01-15T07:54:57;0.77;;;0.70;;
25327;SDS011;13279;51.300;12.394;2023-01-15T07:57:25;0.83;;;0.63;;
25327;SDS011;13279;51.300;12.394;2023-01-15T07:59:53;0.50;;;0.50;;
25327;SDS011;13279;51.300;12.394;2023-01-15T08:02:20;0.67;;;0.67;;
25327;SDS011;13279;51.300;12.394;2023-01-15T08:04:48;0.70;;;0.70;;
25327;SDS011;13279;51.300;12.394;2023-01-15T08:07:16;0.50;;;0.50;;
25327;SDS011;13279;51.300;12.394;2023-01-15T08:09:44;0.30;;;0.30;;
25327;SDS011;13279;51.300;12.394;2023-01-15T08:12:12;0.30;;;0.30;;
25327;SDS011;13279;51.300;12.394;2023-01-15T08:14:57;0.40;;;0.40;;
25327;SDS011;13279;51.300;12.394;2023-01-15T08:17:41;0.43;;;0.43;;
25327;SDS011;13279;51.300;12.394;2023-01-15T08:20:11;0.67;;;0.50;;
25327;SDS011;13279;51.300;12.394;2023-01-15T08:22:40;2.00;;;0.30;;
25327;SDS011;13279;51.300;12.394;2023-01-15T08:25:10;0.37;;;0.37;;
25327;SDS011;13279;51.300;12.394;2023-01-15T08:27:40;0.70;;;0.63;;
25327;SDS011;13279;51.300;12.394;2023-01-15T08:30:10;0.40;;;0.40;;
25327;SDS011;13279;51.300;12.394;2023-01-15T08:32:39;0.37;;;0.37;;
25327;SDS011;13279;51.300;12.394;2023-01-15T08:35:07;0.67;;;0.37;;
25327;SDS011;13279;51.300;12.394;2023-01-15T08:37:34;0.20;;;0.20;;
25327;SDS011;13279;51.300;12.394;2023-01-15T08:40:02;0.40;;;0.40;;
25327;SDS011;13279;51.300;12.394;2023-01-15T08:42:30;1.13;;;0.60;;
25327;SDS011;13279;51.300;12.394;2023-01-15T08:44:59;0.40;;;0.40;;
25327;SDS011;13279;51.300;12.394;2023-01-15T08:47:27;2.30;;;0.77;;
25327;SDS011;13279;51.300;12.394;2023-01-15T08:49:56;0.47;;;0.47;;
25327;SDS011;13279;51.300;12.394;2023-01-15T08:52:23;0.37;;;0.37;;
25327;SDS011;13279;51.300;12.394;2023-01-15T08:54:51;0.73;;;0.50;;
25327;SDS011;13279;51.300;12.394;2023-01-15T08:57:18;0.80;;;0.30;;
25327;SDS011;13279;51.300;12.394;2023-01-15T08:59:46;1.00;;;0.40;;
25327;SDS011;13279;51.300;12.394;2023-01-15T09:02:15;0.40;;;0.40;;
25327;SDS011;13279;51.300;12.394;2023-01-15T09:04:43;0.23;;;0.20;;
25327;SDS011;13279;51.300;12.394;2023-01-15T09:07:10;0.43;;;0.40;;
25327;SDS011;13279;51.300;12.394;2023-01-15T09:09:38;0.30;;;0.30;;
25327;SDS011;13279;51.300;12.394;2023-01-15T09:12:05;0.60;;;0.50;;
25327;SDS011;13279;51.300;12.394;2023-01-15T09:14:33;0.40;;;0.40;;
25327;SDS011;13279;51.300;12.394;2023-01-15T09:17:01;0.50;;;0.30;;
25327;SDS011;13279;51.300;12.394;2023-01-15T09:19:30;0.70;;;0.40;;
25327;SDS011;13279;51.300;12.394;2023-01-15T09:21:57;4.07;;;0.53;;
25327;SDS011;13279;51.300;12.394;2023-01-15T09:24:28;0.30;;;0.30;;
25327;SDS011;13279;51.300;12.394;2023-01-15T09:26:56;2.57;;;0.37;;
25327;SDS011;13279;51.300;12.394;2023-01-15T09:29:23;0.43;;;0.43;;
25327;SDS011;13279;51.300;12.394;2023-01-15T09:31:50;1.70;;;0.40;;
25327;SDS011;13279;51.300;12.394;2023-01-15T09:34:18;0.30;;;0.30;;
25327;SDS011;13279;51.300;12.394;2023-01-15T09:36:47;0.20;;;0.20;;
25327;SDS011;13279;51.300;12.394;2023-01-15T09:39:15;0.30;;;0.30;;
25327;SDS011;13279;51.300;12.394;2023-01-15T09:41:58;0.27;;;0.27;;
25327;SDS011;13279;51.300;12.394;2023-01-15T09:44:44;1.67;;;0.40;;
25327;SDS011;13279;51.300;12.394;2023-01-15T09:47:29;0.30;;;0.27;;
25327;SDS011;13279;51.300;12.394;2023-01-15T09:50:03;0.30;;;0.30;;
25327;SDS011;13279;51.300;12.394;2023-01-15T09:55:44;0.87;;;0.40;;
25327;SDS011;13279;51.300;12.394;2023-01-15T09:58:14;4.23;;;0.20;;
25327;SDS011;13279;51.300;12.394;2023-01-15T10:00:47;0.20;;;0.20;;
25327;SDS011;13279;51.300;12.394;2023-01-15T10:03:20;0.40;;;0.40;;
25327;SDS011;13279;51.300;12.394;2023-01-15T10:05:55;0.20;;;0.20;;
25327;SDS011;13279;51.300;12.394;2023-01-15T10:08:33;0.60;;;0.50;;
25327;SDS011;13279;51.300;12.394;2023-01-15T10:11:04;0.50;;;0.40;;
25327;SDS011;13279;51.300;12.394;2023-01-15T10:13:45;0.63;;;0.63;;
25327;SDS011;13279;51.300;12.394;2023-01-15T10:16:17;0.93;;;0.60;;
25327;SDS011;13279;51.300;12.394;2023-01-15T10:18:48;0.30;;;0.30;;
25327;SDS011;13279;51.300;12.394;2023-01-15T10:21:18;0.93;;;0.40;;
25327;SDS011;13279;51.300;12.394;2023-01-15T10:23:59;1.90;;;0.50;;
25327;SDS011;13279;51.300;12.394;2023-01-15T10:26:31;0.43;;;0.40;;
25327;SDS011;13279;51.300;12.394;2023-01-15T10:29:05;0.43;;;0.43;;
25327;SDS011;13279;51.300;12.394;2023-01-15T10:31:49;0.67;;;0.60;;
25327;SDS011;13279;51.300;12.394;2023-01-15T10:34:22;0.60;;;0.30;;
25327;SDS011;13279;51.300;12.394;2023-01-15T10:37:11;0.37;;;0.37;;
25327;SDS011;13279;51.300;12.394;2023-01-15T10:39:47;0.57;;;0.50;;
25327;SDS011;13279;51.300;12.394;2023-01-15T10:42:35;1.43;;;0.37;;
25327;SDS011;13279;51.300;12.394;2023-01-15T10:45:09;1.27;;;0.40;;
25327;SDS011;13279;51.300;12.394;2023-01-15T10:47:42;2.60;;;0.40;;
25327;SDS011;13279;51.300;12.394;2023-01-15T10:50:15;1.93;;;0.43;;
25327;SDS011;13279;51.300;12.394;2023-01-15T10:52:46;2.10;;;0.50;;
25327;SDS011;13279;51.300;12.394;2023-01-15T10:55:26;0.53;;;0.33;;
25327;SDS011;13279;51.300;12.394;2023-01-15T10:58:00;2.83;;;0.53;;
25327;SDS011;13279;51.300;12.394;2023-01-15T11:00:37;0.40;;;0.33;;
25327;SDS011;13279;51.300;12.394;2023-01-15T11:03:08;0.50;;;0.50;;
25327;SDS011;13279;51.300;12.394;2023-01-15T11:05:43;2.73;;;0.33;;
25327;SDS011;13279;51.300;12.394;2023-01-15T11:08:17;0.40;;;0.40;;
25327;SDS011;13279;51.300;12.394;2023-01-15T11:10:52;2.07;;;0.30;;
25327;SDS011;13279;51.300;12.394;2023-01-15T11:13:20;1.47;;;1.00;;
25327;SDS011;13279;51.300;12.394;2023-01-15T11:16:12;0.30;;;0.30;;
25327;SDS011;13279;51.300;12.394;2023-01-15T11:19:00;0.30;;;0.30;;
25327;SDS011;13279;51.300;12.394;2023-01-15T11:21:45;0.80;;;0.37;;
25327;SDS011;13279;51.300;12.394;2023-01-15T11:24:14;0.87;;;0.30;;
25327;SDS011;13279;51.300;12.394;2023-01-15T11:26:46;0.50;;;0.40;;
25327;SDS011;13279;51.300;12.394;2023-01-15T11:29:19;2.70;;;0.90;;
25327;SDS011;13279;51.300;12.394;2023-01-15T11:31:52;4.53;;;0.60;;
25327;SDS011;13279;51.300;12.394;2023-01-15T11:34:20;0.67;;;0.40;;
25327;SDS011;13279;51.300;12.394;2023-01-15T11:36:48;2.33;;;0.40;;
25327;SDS011;13279;51.300;12.394;2023-01-15T11:39:27;0.40;;;0.40;;
25327;SDS011;13279;51.300;12.394;2023-01-15T11:42:02;0.60;;;0.57;;
25327;SDS011;13279;51.300;12.394;2023-01-15T11:44:52;1.40;;;0.43;;
25327;SDS011;13279;51.300;12.394;2023-01-15T11:47:38;0.40;;;0.33;;
25327;SDS011;13279;51.300;12.394;2023-01-15T11:50:33;2.13;;;1.10;;
25327;SDS011;13279;51.300;12.394;2023-01-15T11:53:12;1.17;;;0.60;;
25327;SDS011;13279;51.300;12.394;2023-01-15T11:55:49;3.93;;;0.50;;
25327;SDS011;13279;51.300;12.394;2023-01-15T11:58:26;0.43;;;0.40;;
25327;SDS011;13279;51.300;12.394;2023-01-15T12:00:54;0.40;;;0.40;;
25327;SDS011;13279;51.300;12.394;2023-01-15T12:03:23;0.60;;;0.33;;
25327;SDS011;13279;51.300;12.394;2023-01-15T12:05:54;0.20;;;0.20;;
25327;SDS011;13279;51.300;12.394;2023-01-15T12:12:23;2.20;;;0.30;;
25327;SDS011;13279;51.300;12.394;2023-01-15T12:21:28;0.70;;;0.20;;
25327;SDS011;13279;51.300;12.394;2023-01-15T12:24:31;0.50;;;0.40;;
25327;SDS011;13279;51.300;12.394;2023-01-15T12:27:23;0.20;;;0.20;;
25327;SDS011;13279;51.300;12.394;2023-01-15T12:30:35;0.20;;;0.20;;
25327;SDS011;13279;51.300;12.394;2023-01-15T12:33:17;0.20;;;0.20;;
25327;SDS011;13279;51.300;12.394;2023-01-15T12:35:54;1.73;;;0.20;;
25327;SDS011;13279;51.300;12.394;2023-01-15T12:38:27;0.40;;;0.40;;
25327;SDS011;13279;51.300;12.394;2023-01-15T12:41:07;1.17;;;0.30;;
25327;SDS011;13279;51.300;12.394;2023-01-15T12:43:38;2.00;;;0.30;;
25327;SDS011;13279;51.300;12.394;2023-01-15T12:46:31;0.33;;;0.33;;
25327;SDS011;13279;51.300;12.394;2023-01-15T12:49:03;1.13;;;0.40;;
25327;SDS011;13279;51.300;12.394;2023-01-15T12:51:40;0.50;;;0.40;;
25327;SDS011;13279;51.300;12.394;2023-01-15T12:54:18;2.37;;;0.50;;
25327;SDS011;13279;51.300;12.394;2023-01-15T12:56:59;0.50;;;0.30;;
25327;SDS011;13279;51.300;12.394;2023-01-15T12:59:34;0.30;;;0.20;;
25327;SDS011;13279;51.300;12.394;2023-01-15T13:02:13;1.10;;;0.50;;
25327;SDS011;13279;51.300;12.394;2023-01-15T13:04:49;0.40;;;0.40;;
25327;SDS011;13279;51.300;12.394;2023-01-15T13:07:19;0.30;;;0.30;;
25327;SDS011;13279;51.300;12.394;2023-01-15T13:09:55;0.40;;;0.40;;
25327;SDS011;13279;51.300;12.394;2023-01-15T13:12:28;2.63;;;0.60;;
25327;SDS011;13279;51.300;12.394;2023-01-15T13:14:55;0.60;;;0.60;;
25327;SDS011;13279;51.300;12.394;2023-01-15T13:17:27;0.40;;;0.30;;
25327;SDS011;13279;51.300;12.394;2023-01-15T13:20:04;4.47;;;0.40;;
25327;SDS011;13279;51.300;12.394;2023-01-15T13:22:49;2.60;;;0.63;;
25327;SDS011;13279;51.300;12.394;2023-01-15T13:25:28;1.40;;;0.67;;
25327;SDS011;13279;51.300;12.394;2023-01-15T13:28:31;0.43;;;0.43;;
25327;SDS011;13279;51.300;12.394;2023-01-15T13:31:12;0.53;;;0.40;;
25327;SDS011;13279;51.300;12.394;2023-01-15T13:33:57;1.17;;;0.63;;
25327;SDS011;13279;51.300;12.394;2023-01-15T13:36:30;0.30;;;0.30;;
25327;SDS011;13279;51.300;12.394;2023-01-15T13:39:02;0.73;;;0.60;;
25327;SDS011;13279;51.300;12.394;2023-01-15T13:41:33;0.40;;;0.40;;
25327;SDS011;13279;51.300;12.394;2023-01-15T13:44:19;0.50;;;0.50;;
25327;SDS011;13279;51.300;12.394;2023-01-15T13:46:48;0.50;;;0.43;;
25327;SDS011;13279;51.300;12.394;2023-01-15T13:49:29;0.97;;;0.40;;
25327;SDS011;13279;51.300;12.394;2023-01-15T13:51:58;1.53;;;0.40;;
25327;SDS011;13279;51.300;12.394;2023-01-15T13:54:28;0.93;;;0.33;;
25327;SDS011;13279;51.300;12.394;2023-01-15T13:57:05;2.80;;;0.50;;
25327;SDS011;13279;51.300;12.394;2023-01-15T13:59:37;0.40;;;0.40;;
25327;SDS011;13279;51.300;12.394;2023-01-15T14:02:22;1.23;;;0.53;;
25327;SDS011;13279;51.300;12.394;2023-01-15T14:04:52;0.77;;;0.40;;
25327;SDS011;13279;51.300;12.394;2023-01-15T14:07:20;0.50;;;0.50;;
25327;SDS011;13279;51.300;12.394;2023-01-15T14:10:20;1.43;;;0.60;;
25327;SDS011;13279;51.300;12.394;2023-01-15T14:16:13;0.37;;;0.27;;
25327;SDS011;13279;51.300;12.394;2023-01-15T14:19:02;0.40;;;0.40;;
25327;SDS011;13279;51.300;12.394;2023-01-15T14:21:53;0.50;;;0.50;;
25327;SDS011;13279;51.300;12.394;2023-01-15T14:24:46;0.30;;;0.30;;
25327;SDS011;13279;51.300;12.394;2023-01-15T14:27:39;0.60;;;0.50;;
25327;SDS011;13279;51.300;12.394;2023-01-15T14:30:23;0.93;;;0.30;;
25327;SDS011;13279;51.300;12.394;2023-01-15T14:33:05;0.30;;;0.30;;
25327;SDS011;13279;51.300;12.394;2023-01-15T14:35:45;0.23;;;0.23;;
25327;SDS011;13279;51.300;12.394;2023-01-15T14:38:16;0.40;;;0.40;;
25327;SDS011;13279;51.300;12.394;2023-01-15T14:40:51;0.57;;;0.37;;
25327;SDS011;13279;51.300;12.394;2023-01-15T14:43:24;2.60;;;0.57;;
25327;SDS011;13279;51.300;12.394;2023-01-15T14:45:53;0.97;;;0.77;;
25327;SDS011;13279;51.300;12.394;2023-01-15T14:48:33;0.87;;;0.57;;
25327;SDS011;13279;51.300;12.394;2023-01-15T14:51:07;0.20;;;0.20;;
25327;SDS011;13279;51.300;12.394;2023-01-15T14:53:39;0.33;;;0.33;;
25327;SDS011;13279;51.300;12.394;2023-01-15T14:56:15;1.53;;;0.40;;
25327;SDS011;13279;51.300;12.394;2023-01-15T14:59:15;1.77;;;0.60;;
25327;SDS011;13279;51.300;12.394;2023-01-15T15:02:00;1.67;;;0.50;;
25327;SDS011;13279;51.300;12.394;2023-01-15T15:04:32;0.57;;;0.37;;
25327;SDS011;13279;51.300;12.394;2023-01-15T15:07:05;1.70;;;0.60;;
25327;SDS011;13279;51.300;12.394;2023-01-15T15:09:39;0.80;;;0.50;;
25327;SDS011;13279;51.300;12.394;2023-01-15T15:14:58;1.53;;;0.70;;
25327;SDS011;13279;51.300;12.394;2023-01-15T15:17:30;1.03;;;0.60;;
25327;SDS011;13279;51.300;12.394;2023-01-15T15:20:20;0.50;;;0.50;;
25327;SDS011;13279;51.300;12.394;2023-01-15T15:22:58;2.13;;;0.40;;
25327;SDS011;13279;51.300;12.394;2023-01-15T15:25:34;0.70;;;0.70;;
25327;SDS011;13279;51.300;12.394;2023-01-15T15:28:05;2.00;;;0.83;;
25327;SDS011;13279;51.300;12.394;2023-01-15T15:30:38;3.70;;;1.47;;
25327;SDS011;13279;51.300;12.394;2023-01-15T15:33:11;2.67;;;0.77;;
25327;SDS011;13279;51.300;12.394;2023-01-15T15:35:43;5.07;;;0.90;;
25327;SDS011;13279;51.300;12.394;2023-01-15T15:38:15;2.00;;;0.63;;